< < Back
Terminal Aerodrome Forecast


Current Version              Previous Versions:   1  2  3  4  5  6  7  8  9  

Terminal Aerodrome Forecast

115
FTUS42 KFFC 211100
TAFMCN
TAF
KMCN 211127Z 2112/2212 VRB03KT P6SM FEW250
     FM212000 33004KT P6SM FEW120
     FM220200 24003KT P6SM BKN120=

Latest METAR

897
SAUS80 KWBC 211500 RRA
MTRMCN
METAR KMCN 211453Z 03004KT 10SM CLR 19/08 A3017 RMK AO2 SLP214 T01890083
58001


USA.gov is the U.S. government's official web portal to all federal, state and local government web resources and services.